Time;durP1;ratioP1;P1;durP2;ratioP2;P2;SDS_P1;SDS_P2;PMS_P1;PMS_P2;Temp;Humidity;BMP_temperature;BMP_pressure;BME280_temperature;BME280_humidity;BME280_pressure;Samples;Min_cycle;Max_cycle;Signal;HPM_P1;HPM_P2
2021/01/09 00:01:22;;;;;;;22.77;11.17;;;2.50;95.00;;;;;;5111372;27;20039;-71
2021/01/09 00:03:48;;;;;;;24.47;11.93;;;2.50;95.00;;;;;;5111390;27;20032;-71
2021/01/09 00:06:13;;;;;;;23.57;11.73;;;2.40;95.00;;;;;;5110907;27;20032;-71
2021/01/09 00:08:39;;;;;;;22.43;11.87;;;2.40;95.00;;;;;;5111741;27;20081;-72
2021/01/09 00:11:05;;;;;;;20.80;11.10;;;2.40;95.00;;;;;;5111614;27;20489;-70
2021/01/09 00:13:32;;;;;;;22.97;11.03;;;2.40;95.00;;;;;;5110754;27;20492;-69
2021/01/09 00:15:57;;;;;;;20.80;11.27;;;2.40;95.00;;;;;;5110596;27;20032;-70
2021/01/09 00:18:23;;;;;;;20.87;10.97;;;2.40;95.00;;;;;;5111031;27;20048;-69
2021/01/09 00:20:50;;;;;;;24.63;12.73;;;2.40;95.00;;;;;;5111521;27;20092;-69
2021/01/09 00:23:15;;;;;;;22.00;11.30;;;2.40;95.20;;;;;;5111217;27;20415;-70
2021/01/09 00:25:41;;;;;;;23.53;12.20;;;2.40;95.00;;;;;;5110577;27;20035;-69
2021/01/09 00:28:07;;;;;;;21.57;11.57;;;2.40;95.00;;;;;;5111403;27;20408;-70
2021/01/09 00:30:36;;;;;;;23.13;12.00;;;2.40;95.10;;;;;;5110760;27;20050;-70
2021/01/09 00:33:01;;;;;;;22.37;11.27;;;2.40;95.10;;;;;;5092211;28;20492;-70
2021/01/09 00:35:27;;;;;;;21.20;10.77;;;2.40;95.10;;;;;;5092922;28;20032;-70
2021/01/09 00:37:53;;;;;;;22.07;11.63;;;2.40;95.10;;;;;;5110807;28;20522;-70
2021/01/09 00:40:18;;;;;;;19.63;11.00;;;2.40;95.10;;;;;;5111209;28;20119;-70
2021/01/09 00:42:47;;;;;;;21.20;11.40;;;2.40;95.10;;;;;;5092595;28;20521;-69
2021/01/09 00:45:12;;;;;;;21.53;11.70;;;2.40;95.10;;;;;;5092498;28;20034;-70
2021/01/09 00:47:38;;;;;;;22.27;11.13;;;2.40;95.00;;;;;;5111097;28;20035;-70
2021/01/09 00:50:05;;;;;;;18.80;10.33;;;2.40;95.10;;;;;;5110485;28;20096;-71
2021/01/09 00:52:31;;;;;;;18.83;9.87;;;2.40;95.20;;;;;;5110715;28;20092;-70
2021/01/09 00:54:56;;;;;;;18.63;9.60;;;2.40;95.20;;;;;;5092376;28;20027;-70
2021/01/09 00:57:22;;;;;;;20.13;9.93;;;2.40;95.10;;;;;;5092683;28;20055;-70
2021/01/09 00:59:50;;;;;;;18.47;9.87;;;2.40;95.10;;;;;;5092357;28;20032;-70
2021/01/09 01:02:16;;;;;;;18.93;9.90;;;2.40;95.10;;;;;;5075043;27;20043;-70
2021/01/09 01:04:42;;;;;;;18.30;9.47;;;2.40;95.10;;;;;;5110790;27;20042;-70
2021/01/09 01:07:07;;;;;;;18.50;9.40;;;2.40;95.10;;;;;;5127063;27;20027;-70
2021/01/09 01:09:33;;;;;;;18.77;9.60;;;2.40;95.10;;;;;;5108612;28;20614;-70
2021/01/09 01:12:01;;;;;;;18.30;9.43;;;2.40;95.10;;;;;;5110708;28;20153;-70
2021/01/09 01:14:27;;;;;;;15.90;8.83;;;2.30;95.10;;;;;;5091646;28;20051;-71
2021/01/09 01:16:54;;;;;;;19.03;9.50;;;2.40;95.00;;;;;;5092872;28;20040;-70
2021/01/09 01:19:19;;;;;;;18.00;9.37;;;2.40;95.10;;;;;;5110296;28;20093;-70
2021/01/09 01:21:45;;;;;;;17.63;8.93;;;2.30;95.00;;;;;;5110595;28;20073;-71
2021/01/09 01:24:11;;;;;;;18.07;9.23;;;2.40;95.00;;;;;;5110706;28;20027;-70
2021/01/09 01:26:36;;;;;;;19.50;9.40;;;2.30;95.00;;;;;;5091866;28;20404;-70
2021/01/09 01:29:03;;;;;;;18.50;9.07;;;2.30;95.00;;;;;;5112597;28;20488;-69
2021/01/09 01:31:29;;;;;;;18.03;8.87;;;2.30;95.00;;;;;;5096717;28;20024;-70
2021/01/09 01:33:55;;;;;;;19.90;9.13;;;2.30;95.10;;;;;;5113777;28;20602;-70
2021/01/09 01:36:20;;;;;;;18.80;10.10;;;2.30;95.10;;;;;;5096038;28;20036;-70
2021/01/09 01:38:46;;;;;;;18.53;9.20;;;2.30;95.20;;;;;;5113942;28;20074;-69
2021/01/09 01:41:12;;;;;;;21.43;11.10;;;2.30;95.00;;;;;;5114668;28;20831;-70
2021/01/09 01:43:38;;;;;;;20.23;10.00;;;2.30;95.00;;;;;;5114515;28;20036;-76
2021/01/09 01:46:06;;;;;;;19.20;10.27;;;2.30;95.00;;;;;;5113626;28;20027;-76
2021/01/09 01:48:33;;;;;;;18.73;10.23;;;2.30;95.00;;;;;;5095988;28;20028;-73
2021/01/09 01:50:59;;;;;;;18.63;10.23;;;2.30;95.00;;;;;;5095563;27;20043;-74
2021/01/09 01:53:29;;;;;;;19.00;9.97;;;2.30;95.10;;;;;;5113929;27;20404;-75
2021/01/09 01:55:55;;;;;;;18.63;9.87;;;2.30;95.10;;;;;;5095610;28;20043;-75
2021/01/09 01:58:21;;;;;;;18.57;9.40;;;2.30;95.10;;;;;;5111835;27;20526;-75
2021/01/09 02:00:49;;;;;;;20.07;10.60;;;2.30;95.10;;;;;;5095966;28;20058;-75
2021/01/09 02:03:18;;;;;;;19.77;10.03;;;2.30;94.90;;;;;;5113261;27;20044;-75
2021/01/09 02:06:04;;;;;;;21.83;9.63;;;2.30;94.90;;;;;;5113563;27;20032;-75
2021/01/09 02:08:51;;;;;;;19.17;10.17;;;2.30;95.00;;;;;;5113486;27;20436;-75
2021/01/09 02:11:30;;;;;;;19.00;9.77;;;2.30;95.10;;;;;;5113569;27;20047;-73
2021/01/09 02:13:59;;;;;;;19.00;10.23;;;2.20;95.00;;;;;;5113623;27;20434;-75
2021/01/09 02:16:25;;;;;;;20.07;10.27;;;2.30;95.10;;;;;;5113121;27;20042;-75
2021/01/09 02:18:52;;;;;;;18.73;9.93;;;2.30;95.10;;;;;;5113240;27;20046;-75
2021/01/09 02:21:43;;;;;;;18.90;9.77;;;2.30;95.10;;;;;;5129517;27;20431;-75
2021/01/09 02:24:13;;;;;;;18.92;9.63;;;2.30;95.10;;;;;;5112892;27;20039;-75
2021/01/09 02:26:39;;;;;;;18.92;9.68;;;2.30;95.10;;;;;;5078549;28;20145;-75
2021/01/09 02:29:05;;;;;;;19.87;10.37;;;2.30;95.10;;;;;;5112946;27;20105;-75
2021/01/09 02:31:39;;;;;;;20.53;10.70;;;2.30;95.10;;;;;;5113507;27;20031;-75
2021/01/09 02:34:08;;;;;;;18.63;9.83;;;2.30;95.10;;;;;;5128990;27;20031;-75
2021/01/09 02:36:36;;;;;;;19.00;10.23;;;2.20;95.10;;;;;;5112896;27;20501;-75
2021/01/09 02:39:02;;;;;;;21.30;10.43;;;2.30;95.10;;;;;;5112497;27;20088;-75
2021/01/09 02:41:30;;;;;;;19.63;9.87;;;2.20;95.00;;;;;;5113304;27;20031;-76
2021/01/09 02:44:14;;;;;;;19.83;10.77;;;2.20;95.00;;;;;;5112396;27;20036;-76
2021/01/09 02:46:40;;;;;;;21.17;10.77;;;2.20;95.10;;;;;;5112981;28;20031;-76
2021/01/09 02:49:06;;;;;;;19.73;10.10;;;2.20;95.10;;;;;;5112631;27;20089;-76
2021/01/09 02:51:32;;;;;;;19.43;10.17;;;2.20;95.20;;;;;;5094562;27;20035;-75
2021/01/09 02:53:58;;;;;;;20.83;10.53;;;2.20;95.20;;;;;;5112911;27;20042;-75
2021/01/09 02:56:24;;;;;;;18.63;9.93;;;2.20;95.20;;;;;;5094736;28;20036;-76
2021/01/09 02:58:50;;;;;;;22.23;11.37;;;2.20;95.20;;;;;;5112481;27;20115;-75
2021/01/09 03:01:15;;;;;;;20.83;10.70;;;2.20;95.40;;;;;;5112891;27;20488;-74
2021/01/09 03:03:41;;;;;;;22.33;10.97;;;2.20;95.20;;;;;;5112116;27;20500;-75
2021/01/09 03:06:07;;;;;;;21.03;10.93;;;2.20;95.20;;;;;;5112603;27;20038;-74
2021/01/09 03:08:33;;;;;;;21.63;10.80;;;2.20;95.20;;;;;;5112754;27;20110;-75
2021/01/09 03:10:59;;;;;;;21.30;11.47;;;2.20;95.20;;;;;;5093984;28;20122;-75
2021/01/09 03:13:25;;;;;;;21.10;11.40;;;2.20;95.20;;;;;;5112318;27;20036;-75
2021/01/09 03:15:50;;;;;;;21.43;11.37;;;2.30;95.20;;;;;;5111442;27;20458;-75
2021/01/09 03:18:16;;;;;;;19.77;11.00;;;2.30;95.20;;;;;;5112171;27;20081;-76
2021/01/09 03:20:42;;;;;;;20.57;10.50;;;2.30;95.20;;;;;;5112671;28;20058;-75
2021/01/09 03:23:07;;;;;;;20.83;11.17;;;2.30;95.30;;;;;;5111499;28;20510;-75
2021/01/09 03:25:33;;;;;;;21.00;11.13;;;2.30;95.30;;;;;;5093902;28;20031;-76
2021/01/09 03:27:59;;;;;;;20.53;11.00;;;2.30;95.30;;;;;;5111393;28;20408;-75
2021/01/09 03:30:25;;;;;;;19.27;9.93;;;2.30;95.20;;;;;;5112375;27;20044;-74
2021/01/09 03:32:50;;;;;;;21.97;11.23;;;2.30;95.20;;;;;;5111939;27;20059;-76
2021/01/09 03:35:16;;;;;;;22.37;10.67;;;2.30;95.30;;;;;;5111358;27;20043;-74
2021/01/09 03:37:42;;;;;;;20.23;10.77;;;2.30;95.30;;;;;;5112269;27;20032;-75
2021/01/09 03:40:08;;;;;;;20.30;10.93;;;2.40;95.30;;;;;;5111261;27;20047;-76
2021/01/09 03:42:34;;;;;;;19.70;10.77;;;2.40;95.30;;;;;;5111782;27;20127;-75
2021/01/09 03:45:00;;;;;;;19.07;10.13;;;2.40;95.30;;;;;;5111701;27;20050;-76
2021/01/09 03:47:25;;;;;;;19.90;10.13;;;2.40;95.30;;;;;;5091588;27;20445;-75
2021/01/09 03:49:51;;;;;;;20.17;10.63;;;2.40;95.20;;;;;;5093033;28;20500;-75
2021/01/09 03:52:17;;;;;;;19.90;10.30;;;2.40;95.20;;;;;;5110635;27;20107;-75
2021/01/09 03:54:43;;;;;;;18.43;10.03;;;2.40;95.40;;;;;;5111416;27;20040;-74
2021/01/09 03:57:09;;;;;;;19.03;9.90;;;2.40;95.20;;;;;;5111934;27;20031;-74
2021/01/09 03:59:34;;;;;;;19.63;10.47;;;2.40;95.20;;;;;;5111244;27;20042;-76
2021/01/09 04:02:00;;;;;;;19.30;10.73;;;2.40;95.20;;;;;;5111480;27;20115;-76
2021/01/09 04:04:26;;;;;;;18.33;10.20;;;2.40;95.20;;;;;;5111363;27;20023;-75
2021/01/09 04:06:51;;;;;;;17.87;10.27;;;2.40;95.20;;;;;;5111228;27;20508;-75
2021/01/09 04:09:17;;;;;;;20.83;10.53;;;2.40;95.20;;;;;;5092973;28;20484;-75
2021/01/09 04:11:43;;;;;;;19.53;10.07;;;2.40;95.30;;;;;;5092688;27;20476;-76
2021/01/09 04:14:09;;;;;;;20.60;10.40;;;2.40;95.30;;;;;;5093202;28;20051;-76
2021/01/09 04:16:37;;;;;;;22.30;11.00;;;2.40;95.30;;;;;;5111060;27;20070;-75
2021/01/09 04:19:03;;;;;;;18.90;9.80;;;2.40;95.30;;;;;;5111052;27;20030;-75
2021/01/09 04:21:29;;;;;;;18.93;10.57;;;2.40;95.20;;;;;;5093192;28;20034;-76
2021/01/09 04:23:55;;;;;;;18.93;9.63;;;2.40;95.20;;;;;;5110578;27;20412;-75
2021/01/09 04:26:21;;;;;;;19.13;10.30;;;2.40;95.30;;;;;;5127008;27;20105;-76
2021/01/09 04:28:47;;;;;;;20.53;10.50;;;2.40;95.30;;;;;;5093124;28;20039;-76
2021/01/09 04:31:16;;;;;;;20.43;10.80;;;2.40;95.30;;;;;;5110824;27;20040;-74
2021/01/09 04:33:41;;;;;;;19.33;10.07;;;2.40;95.30;;;;;;5110911;27;20063;-75
2021/01/09 04:36:07;;;;;;;18.07;9.63;;;2.40;95.30;;;;;;5110603;27;20070;-75
2021/01/09 04:38:33;;;;;;;18.40;9.93;;;2.40;95.20;;;;;;5092626;28;20084;-75
2021/01/09 04:40:59;;;;;;;20.03;10.73;;;2.40;95.20;;;;;;5111274;27;20047;-76
2021/01/09 04:43:26;;;;;;;19.47;10.07;;;2.40;95.20;;;;;;5110626;27;20565;-76
2021/01/09 04:45:53;;;;;;;17.90;10.43;;;2.40;95.20;;;;;;5110906;27;20076;-75
2021/01/09 04:48:19;;;;;;;19.73;10.90;;;2.40;95.20;;;;;;5110601;27;20047;-74
2021/01/09 04:50:50;;;;;;;20.70;11.03;;;2.40;95.20;;;;;;5111213;27;20089;-75
2021/01/09 04:53:18;;;;;;;20.27;10.57;;;2.40;95.20;;;;;;5091948;27;20130;-75
2021/01/09 04:55:46;;;;;;;22.17;11.17;;;2.40;95.20;;;;;;5110854;27;20043;-77
2021/01/09 04:58:12;;;;;;;21.23;11.07;;;2.40;95.20;;;;;;5110939;27;20050;-75
2021/01/09 05:00:37;;;;;;;24.20;11.93;;;2.40;95.40;;;;;;5110679;27;20044;-75
2021/01/09 05:03:03;;;;;;;19.43;10.83;;;2.40;95.20;;;;;;5113298;27;20176;-75
2021/01/09 05:05:29;;;;;;;20.87;10.87;;;2.40;95.20;;;;;;5114566;27;20031;-74
2021/01/09 05:07:55;;;;;;;18.87;10.33;;;2.40;95.20;;;;;;5114928;27;20399;-75
2021/01/09 05:10:22;;;;;;;21.60;10.93;;;2.40;95.20;;;;;;5114588;27;20037;-75
2021/01/09 05:12:48;;;;;;;21.37;10.93;;;2.40;95.20;;;;;;5096156;27;20100;-76
2021/01/09 05:15:14;;;;;;;19.63;10.60;;;2.40;95.10;;;;;;5130572;27;20427;-75
2021/01/09 05:17:40;;;;;;;21.53;11.97;;;2.40;95.10;;;;;;5114596;27;20039;-75
2021/01/09 05:20:07;;;;;;;22.27;11.83;;;2.30;95.10;;;;;;5114914;27;20043;-75
2021/01/09 05:22:37;;;;;;;20.87;11.50;;;2.30;95.10;;;;;;5096188;28;20061;-76
2021/01/09 05:25:04;;;;;;;22.30;11.37;;;2.40;95.20;;;;;;5114103;27;20050;-76
2021/01/09 05:27:30;;;;;;;22.20;11.30;;;2.30;95.20;;;;;;5114837;27;20035;-75
2021/01/09 05:29:56;;;;;;;22.20;12.10;;;2.40;95.20;;;;;;5114020;27;20043;-75
2021/01/09 05:32:23;;;;;;;20.97;10.90;;;2.30;95.10;;;;;;5114509;27;20126;-75
2021/01/09 05:34:53;;;;;;;20.90;10.97;;;2.30;95.20;;;;;;5114206;27;20039;-75
2021/01/09 05:37:24;;;;;;;21.80;11.73;;;2.40;95.20;;;;;;5114278;27;20039;-75
2021/01/09 05:39:58;;;;;;;20.87;11.67;;;2.40;95.20;;;;;;5113639;27;20065;-76
2021/01/09 05:42:28;;;;;;;21.00;11.07;;;2.30;95.10;;;;;;5113870;27;20032;-76
2021/01/09 05:44:56;;;;;;;21.65;11.00;;;2.40;95.10;;;;;;5114124;27;20123;-75
2021/01/09 05:47:24;;;;;;;21.27;11.73;;;2.30;95.00;;;;;;5114010;27;20036;-75
2021/01/09 05:49:54;;;;;;;19.30;11.30;;;2.30;95.00;;;;;;5096177;28;20054;-75
2021/01/09 05:52:25;;;;;;;22.77;12.30;;;2.30;95.00;;;;;;5095324;27;20062;-74
2021/01/09 05:54:56;;;;;;;22.07;11.40;;;2.20;95.00;;;;;;5095873;28;20039;-75
2021/01/09 05:57:30;;;;;;;20.90;11.40;;;2.30;95.10;;;;;;5113913;27;20046;-75
2021/01/09 05:59:58;;;;;;;21.97;11.70;;;2.20;95.10;;;;;;5114063;27;20405;-76
2021/01/09 06:02:27;;;;;;;21.63;11.23;;;2.20;95.00;;;;;;5113335;27;20039;-76
2021/01/09 06:04:59;;;;;;;20.80;11.23;;;2.20;95.10;;;;;;5095590;28;20047;-75
2021/01/09 06:07:34;;;;;;;23.37;12.47;;;2.20;95.10;;;;;;5114086;27;20038;-75
2021/01/09 06:10:07;;;;;;;22.40;11.17;;;2.20;95.20;;;;;;5094683;28;20036;-75
2021/01/09 06:12:36;;;;;;;22.43;12.13;;;2.30;95.20;;;;;;5129425;27;20173;-76
2021/01/09 06:15:04;;;;;;;19.73;11.03;;;2.30;95.20;;;;;;5094087;28;20089;-74
2021/01/09 06:17:32;;;;;;;22.70;11.70;;;2.30;95.10;;;;;;5095680;28;20122;-76
2021/01/09 06:19:58;;;;;;;21.57;11.90;;;2.20;95.10;;;;;;5113256;27;20404;-74
2021/01/09 06:22:26;;;;;;;19.60;10.67;;;2.30;95.10;;;;;;5113423;27;20027;-76
2021/01/09 06:24:52;;;;;;;21.27;11.80;;;2.20;95.10;;;;;;5112902;27;20028;-75
2021/01/09 06:27:24;;;;;;;23.97;13.30;;;2.30;95.10;;;;;;5113582;27;20046;-74
2021/01/09 06:29:52;;;;;;;22.40;11.63;;;2.30;95.10;;;;;;5113181;27;20047;-75
2021/01/09 06:32:25;;;;;;;22.00;11.50;;;2.20;94.90;;;;;;5112679;27;20115;-74
2021/01/09 06:34:53;;;;;;;20.03;11.07;;;2.20;94.90;;;;;;5094985;28;20111;-75
2021/01/09 06:37:23;;;;;;;21.23;11.30;;;2.20;95.00;;;;;;5112973;27;20035;-75
2021/01/09 06:39:50;;;;;;;23.40;11.43;;;2.20;94.90;;;;;;5095308;28;20031;-76
2021/01/09 06:42:18;;;;;;;24.03;12.37;;;2.10;94.90;;;;;;5112333;27;20096;-75
2021/01/09 06:44:52;;;;;;;23.60;12.63;;;2.20;95.00;;;;;;5128859;27;20073;-75
2021/01/09 06:47:28;;;;;;;22.13;11.93;;;2.20;95.00;;;;;;5112826;27;20045;-75
2021/01/09 06:49:54;;;;;;;22.10;12.00;;;2.20;95.00;;;;;;5074151;28;20447;-75
2021/01/09 06:52:20;;;;;;;21.63;11.37;;;2.10;95.00;;;;;;5091890;28;20051;-74
2021/01/09 06:54:46;;;;;;;22.63;11.20;;;2.10;95.00;;;;;;5074512;28;20097;-75
2021/01/09 06:57:22;;;;;;;23.87;11.57;;;2.20;95.00;;;;;;5074509;28;20459;-75
2021/01/09 06:59:49;;;;;;;22.70;11.90;;;2.10;95.00;;;;;;5106407;27;20052;-76
2021/01/09 07:02:19;;;;;;;20.60;10.90;;;2.10;95.20;;;;;;5112507;27;20039;-76
2021/01/09 07:05:04;;;;;;;21.63;11.18;;;2.10;94.90;;;;;;5112138;27;20092;-75
2021/01/09 07:07:33;;;;;;;20.00;11.67;;;2.10;94.80;;;;;;5112864;27;20124;-76
2021/01/09 07:10:05;;;;;;;20.33;11.27;;;2.10;94.90;;;;;;5128404;27;20456;-75
2021/01/09 07:12:31;;;;;;;22.73;10.83;;;2.00;94.90;;;;;;5112189;27;20477;-75
2021/01/09 07:15:04;;;;;;;20.73;10.93;;;2.00;94.80;;;;;;5111816;27;20032;-74
2021/01/09 07:17:34;;;;;;;22.70;12.07;;;2.00;94.80;;;;;;5112571;27;20040;-75
2021/01/09 07:20:02;;;;;;;21.77;11.37;;;2.00;94.80;;;;;;5093823;27;20039;-75
2021/01/09 07:22:31;;;;;;;20.70;11.67;;;2.00;94.90;;;;;;5112310;27;20051;-75
2021/01/09 07:24:59;;;;;;;22.07;11.37;;;2.00;94.90;;;;;;5111591;27;20484;-76
2021/01/09 07:27:33;;;;;;;22.83;11.80;;;2.00;95.00;;;;;;5112481;27;20036;-75
2021/01/09 07:30:06;;;;;;;20.93;10.57;;;2.00;95.10;;;;;;5092701;27;20307;-74
2021/01/09 07:33:04;;;;;;;22.00;11.00;;;2.00;95.10;;;;;;5093826;28;20472;-75
2021/01/09 07:35:31;;;;;;;22.20;11.27;;;2.10;95.10;;;;;;5077959;28;20047;-75
2021/01/09 07:38:06;;;;;;;21.80;11.40;;;2.10;95.10;;;;;;5077158;28;20114;-74
2021/01/09 07:40:50;;;;;;;21.73;11.13;;;2.10;95.00;;;;;;5111483;27;20397;-75
2021/01/09 07:43:35;;;;;;;20.00;10.63;;;2.10;95.00;;;;;;5111394;27;20042;-76
2021/01/09 07:46:02;;;;;;;21.17;10.30;;;2.10;95.00;;;;;;5112025;27;20115;-71
2021/01/09 07:48:37;;;;;;;20.97;11.40;;;2.10;95.00;;;;;;5111625;27;20054;-72
2021/01/09 07:51:03;;;;;;;22.87;11.10;;;2.10;94.90;;;;;;5111854;27;20051;-72
2021/01/09 07:53:29;;;;;;;21.70;10.77;;;2.10;94.90;;;;;;5109617;27;20028;-72
2021/01/09 07:55:55;;;;;;;24.23;11.30;;;2.20;94.90;;;;;;5111547;27;20548;-72
2021/01/09 07:58:43;;;;;;;23.00;11.60;;;2.10;94.90;;;;;;5093632;28;20100;-72
2021/01/09 08:01:09;;;;;;;22.93;11.27;;;2.20;94.90;;;;;;5091310;28;20036;-71
2021/01/09 08:03:37;;;;;;;20.90;10.87;;;2.10;94.90;;;;;;5089935;28;20040;-72
2021/01/09 08:06:03;;;;;;;23.23;11.23;;;2.20;95.10;;;;;;5072367;28;20097;-72
2021/01/09 08:08:29;;;;;;;22.33;11.33;;;2.20;95.10;;;;;;5091372;28;20043;-71
2021/01/09 08:10:55;;;;;;;21.43;10.03;;;2.30;95.10;;;;;;5090833;28;20131;-71
2021/01/09 08:13:21;;;;;;;20.50;10.87;;;2.30;95.00;;;;;;5090833;28;20040;-71
2021/01/09 08:15:48;;;;;;;21.93;10.50;;;2.30;95.00;;;;;;5092792;28;20126;-71
2021/01/09 08:18:13;;;;;;;19.90;10.13;;;2.30;95.00;;;;;;5092861;27;20039;-72
2021/01/09 08:20:39;;;;;;;20.90;10.87;;;2.40;95.00;;;;;;5111742;27;20446;-71
2021/01/09 08:23:07;;;;;;;20.70;10.70;;;2.40;95.00;;;;;;5092554;27;20035;-69
2021/01/09 08:25:41;;;;;;;23.70;10.60;;;2.40;95.00;;;;;;5111086;27;20118;-71
2021/01/09 08:28:07;;;;;;;22.57;10.80;;;2.40;95.20;;;;;;5076291;28;20036;-71
2021/01/09 08:30:38;;;;;;;20.10;10.77;;;2.50;95.00;;;;;;5110607;27;20539;-71
2021/01/09 08:33:08;;;;;;;20.97;10.30;;;2.50;95.00;;;;;;5093203;28;20046;-71
2021/01/09 08:35:39;;;;;;;24.00;11.47;;;2.50;95.00;;;;;;5110671;27;20396;-71
2021/01/09 08:38:05;;;;;;;;;;;2.50;94.90;;;;;;5111363;27;20088;-71
2021/01/09 08:40:33;;;;;;;20.43;9.90;;;2.50;94.90;;;;;;5110909;27;20007;-72
2021/01/09 08:43:04;;;;;;;24.77;11.53;;;2.50;95.00;;;;;;5111045;27;20040;-71
2021/01/09 08:45:46;;;;;;;22.47;11.47;;;2.50;94.90;;;;;;5110513;27;20036;-72
2021/01/09 08:48:32;;;;;;;22.17;11.17;;;2.60;94.80;;;;;;5109918;28;20416;-72
2021/01/09 08:51:12;;;;;;;22.27;11.07;;;2.50;94.70;;;;;;5110275;27;20055;-71
2021/01/09 08:53:54;;;;;;;19.40;10.00;;;2.50;94.70;;;;;;5092241;27;20067;-71
2021/01/09 08:56:22;;;;;;;22.70;11.00;;;2.40;94.70;;;;;;5076711;28;20374;-71
2021/01/09 08:58:48;;;;;;;23.30;12.13;;;2.50;94.70;;;;;;5110455;27;20044;-71
2021/01/09 09:01:17;;;;;;;23.10;11.63;;;2.50;94.80;;;;;;5110958;27;20040;-71
2021/01/09 09:03:55;;;;;;;21.73;11.43;;;2.50;94.80;;;;;;5110669;27;20598;-71
2021/01/09 09:06:22;;;;;;;22.73;11.40;;;2.50;94.80;;;;;;5110453;27;20118;-71
2021/01/09 09:08:50;;;;;;;21.80;11.00;;;2.50;94.80;;;;;;5110986;27;20042;-71
2021/01/09 09:11:23;;;;;;;23.55;11.68;;;2.50;94.80;;;;;;5110547;27;20123;-71
2021/01/09 09:14:06;;;;;;;22.08;12.10;;;2.50;95.00;;;;;;5092174;28;20149;-71
2021/01/09 09:16:33;;;;;;;21.77;11.70;;;2.60;94.90;;;;;;5110131;27;20074;-72
2021/01/09 09:19:09;;;;;;;22.20;11.63;;;2.60;94.80;;;;;;5109539;27;20032;-71
2021/01/09 09:21:47;;;;;;;23.33;11.37;;;2.70;94.80;;;;;;5109329;27;20044;-71
2021/01/09 09:24:14;;;;;;;20.70;10.73;;;2.70;94.70;;;;;;5110220;27;20036;-72
2021/01/09 09:26:41;;;;;;;23.30;11.13;;;2.60;94.60;;;;;;5110323;27;20027;-71
2021/01/09 09:29:08;;;;;;;22.50;11.47;;;2.60;94.70;;;;;;5110469;27;20035;-70
2021/01/09 09:31:41;;;;;;;24.60;11.80;;;2.60;94.60;;;;;;5110115;27;20440;-71
2021/01/09 09:34:10;;;;;;;20.43;10.63;;;2.60;94.70;;;;;;5110914;27;20096;-71
2021/01/09 09:36:50;;;;;;;23.33;12.07;;;2.70;94.80;;;;;;5091922;27;20399;-71
2021/01/09 09:39:23;;;;;;;22.73;11.32;;;2.80;94.90;;;;;;5110752;27;20043;-71
2021/01/09 09:41:56;;;;;;;22.00;11.63;;;2.80;94.80;;;;;;5109994;27;20036;-71
2021/01/09 09:44:45;;;;;;;24.93;12.47;;;2.80;94.60;;;;;;5110461;27;20044;-71
2021/01/09 09:47:25;;;;;;;21.77;11.40;;;2.80;94.70;;;;;;5110486;27;20042;-71
2021/01/09 09:49:51;;;;;;;22.50;11.60;;;2.90;94.70;;;;;;5112155;27;20039;-71
2021/01/09 09:52:21;;;;;;;23.43;12.00;;;2.80;94.60;;;;;;5095389;27;20032;-71
2021/01/09 09:54:59;;;;;;;20.85;10.15;;;2.80;94.60;;;;;;5114031;27;20475;-71
2021/01/09 09:57:25;;;;;;;22.07;11.57;;;2.80;94.50;;;;;;5095591;28;20020;-69
2021/01/09 10:00:13;;;;;;;21.07;10.87;;;2.80;94.50;;;;;;5095289;28;20168;-69
2021/01/09 10:02:53;;;;;;;20.47;10.70;;;2.80;94.40;;;;;;5113703;28;20042;-69
2021/01/09 10:05:19;;;;;;;22.70;11.10;;;2.80;94.50;;;;;;5113160;28;20141;-69
2021/01/09 10:07:45;;;;;;;21.20;10.43;;;2.80;94.40;;;;;;5113822;28;20055;-69
2021/01/09 10:10:19;;;;;;;22.00;10.77;;;2.80;94.30;;;;;;5076404;28;20500;-69
2021/01/09 10:12:55;;;;;;;20.97;11.33;;;2.80;94.50;;;;;;5112419;27;20412;-70
2021/01/09 10:15:21;;;;;;;20.93;10.43;;;2.90;94.60;;;;;;5113081;27;20031;-71
2021/01/09 10:17:51;;;;;;;21.27;10.87;;;2.90;94.80;;;;;;5094674;27;20380;-70
2021/01/09 10:20:17;;;;;;;21.85;10.25;;;3.00;94.60;;;;;;5110881;27;20073;-70
2021/01/09 10:22:43;;;;;;;21.77;10.60;;;3.00;94.40;;;;;;5112342;27;20056;-70
2021/01/09 10:25:09;;;;;;;19.60;10.03;;;3.00;94.10;;;;;;5094820;28;20035;-70
2021/01/09 10:27:34;;;;;;;22.50;10.57;;;3.00;94.30;;;;;;5112684;27;20034;-69
2021/01/09 10:30:00;;;;;;;22.30;11.10;;;3.00;94.40;;;;;;5112343;27;20066;-70
2021/01/09 10:32:28;;;;;;;20.90;10.47;;;3.00;94.50;;;;;;5112701;27;20122;-70
2021/01/09 10:34:54;;;;;;;21.03;10.47;;;3.10;94.30;;;;;;5111940;27;20415;-70
2021/01/09 10:37:19;;;;;;;21.63;11.10;;;3.10;94.20;;;;;;5112601;27;20036;-70
2021/01/09 10:39:45;;;;;;;22.07;10.70;;;3.00;94.20;;;;;;5092820;28;20028;-69
2021/01/09 10:42:11;;;;;;;21.37;10.37;;;3.10;94.20;;;;;;5109332;28;20119;-70
2021/01/09 10:44:36;;;;;;;20.80;9.97;;;3.00;94.00;;;;;;5092873;28;20503;-70
2021/01/09 10:47:02;;;;;;;22.20;10.97;;;3.00;94.00;;;;;;5111961;28;20492;-70
2021/01/09 10:49:28;;;;;;;21.67;10.47;;;2.90;94.00;;;;;;5112404;28;20076;-70
2021/01/09 10:51:54;;;;;;;24.03;10.83;;;2.90;94.10;;;;;;5112015;28;20054;-70
2021/01/09 10:54:19;;;;;;;23.93;10.80;;;3.00;94.10;;;;;;5111834;28;20594;-70
2021/01/09 10:56:45;;;;;;;23.50;10.80;;;2.90;94.10;;;;;;5112494;28;20035;-71
2021/01/09 10:59:12;;;;;;;20.50;10.40;;;3.00;94.20;;;;;;5111589;27;20047;-71
2021/01/09 11:01:37;;;;;;;21.67;10.67;;;3.00;94.10;;;;;;5111511;27;20032;-71
2021/01/09 11:04:03;;;;;;;21.20;10.27;;;3.00;94.10;;;;;;5111371;27;20481;-70
2021/01/09 11:06:29;;;;;;;24.20;10.93;;;3.00;94.30;;;;;;5111246;27;20035;-70
2021/01/09 11:08:55;;;;;;;20.40;10.67;;;3.00;94.00;;;;;;5112380;27;20063;-70
2021/01/09 11:11:21;;;;;;;20.03;10.03;;;3.10;94.10;;;;;;5111914;27;20044;-70
2021/01/09 11:13:48;;;;;;;19.63;9.53;;;3.10;93.90;;;;;;5111124;27;20043;-70
2021/01/09 11:16:21;;;;;;;20.73;10.20;;;3.10;94.00;;;;;;5093081;28;20050;-70
2021/01/09 11:18:47;;;;;;;21.43;10.23;;;3.00;93.80;;;;;;5111340;27;20039;-70
2021/01/09 11:21:14;;;;;;;22.67;10.70;;;3.10;93.90;;;;;;5111920;27;20043;-70
2021/01/09 11:23:43;;;;;;;23.13;10.80;;;3.00;93.90;;;;;;5111220;27;20044;-69
2021/01/09 11:26:29;;;;;;;20.30;10.37;;;3.00;93.80;;;;;;5093114;28;20429;-70
2021/01/09 11:28:55;;;;;;;22.37;10.23;;;3.00;93.70;;;;;;5093226;27;20043;-69
2021/01/09 11:31:22;;;;;;;21.53;10.53;;;3.00;93.90;;;;;;5111618;27;20044;-71
2021/01/09 11:33:48;;;;;;;21.67;10.50;;;3.10;94.00;;;;;;5093014;27;20043;-70
2021/01/09 11:36:15;;;;;;;21.70;11.37;;;3.10;94.00;;;;;;5093094;28;20105;-69
2021/01/09 11:38:40;;;;;;;21.03;10.07;;;3.20;94.00;;;;;;5111694;27;20080;-71
2021/01/09 11:41:07;;;;;;;23.57;11.73;;;3.20;93.90;;;;;;5111166;27;20031;-70
2021/01/09 11:43:33;;;;;;;21.73;10.80;;;3.20;93.70;;;;;;5110962;27;20572;-70
2021/01/09 11:45:59;;;;;;;21.97;11.20;;;3.10;93.60;;;;;;5110956;27;20404;-70
2021/01/09 11:48:27;;;;;;;19.67;10.40;;;3.10;93.70;;;;;;5092744;28;20058;-71
2021/01/09 11:50:54;;;;;;;22.77;10.30;;;3.00;93.40;;;;;;5110573;27;20071;-69
2021/01/09 11:53:20;;;;;;;22.10;10.43;;;3.00;93.50;;;;;;5108817;27;20118;-70
2021/01/09 11:55:50;;;;;;;20.70;10.27;;;2.90;93.50;;;;;;5110859;27;20036;-70
2021/01/09 11:58:18;;;;;;;22.53;10.27;;;2.90;93.50;;;;;;5092030;27;20048;-70
2021/01/09 12:00:45;;;;;;;22.70;11.27;;;2.90;93.70;;;;;;5110797;27;20048;-70
2021/01/09 12:03:11;;;;;;;22.60;10.90;;;2.90;93.80;;;;;;5110743;27;20044;-70
2021/01/09 12:05:37;;;;;;;21.20;10.43;;;2.90;93.70;;;;;;5092116;27;20189;-71
2021/01/09 12:08:04;;;;;;;22.80;10.70;;;2.90;93.70;;;;;;5111053;27;20035;-70
2021/01/09 12:10:31;;;;;;;23.23;11.13;;;3.00;93.70;;;;;;5110558;27;20043;-71
2021/01/09 12:12:57;;;;;;;20.87;10.27;;;3.00;93.70;;;;;;5125668;27;20035;-70
2021/01/09 12:15:23;;;;;;;21.37;10.57;;;3.00;93.60;;;;;;5109555;28;20455;-70
2021/01/09 12:17:48;;;;;;;20.40;10.53;;;3.00;93.60;;;;;;5110607;27;20484;-70
2021/01/09 12:20:14;;;;;;;20.47;10.07;;;3.10;93.80;;;;;;5126752;27;20048;-70
2021/01/09 12:22:40;;;;;;;19.80;10.20;;;3.20;93.90;;;;;;5109923;27;20062;-71
2021/01/09 12:25:06;;;;;;;20.13;9.90;;;3.30;94.00;;;;;;5092483;28;20713;-71
2021/01/09 12:27:32;;;;;;;19.70;10.20;;;3.40;94.10;;;;;;5075627;28;20043;-69
2021/01/09 12:29:58;;;;;;;18.77;9.70;;;3.50;94.10;;;;;;5110303;27;20055;-70
2021/01/09 12:32:25;;;;;;;21.57;10.50;;;3.70;94.10;;;;;;5110140;27;20679;-70
2021/01/09 12:34:51;;;;;;;20.53;10.17;;;3.80;94.10;;;;;;5108663;27;20134;-70
2021/01/09 12:37:17;;;;;;;19.50;9.73;;;3.90;93.70;;;;;;5110714;27;20035;-70
2021/01/09 12:39:43;;;;;;;20.63;10.47;;;3.90;93.40;;;;;;5110692;27;20031;-71
2021/01/09 12:42:09;;;;;;;17.87;9.73;;;3.90;93.60;;;;;;5109581;27;20031;-71
2021/01/09 12:44:35;;;;;;;21.40;10.23;;;4.00;93.50;;;;;;5090834;28;20488;-70